Time;durP1;ratioP1;P1;durP2;ratioP2;P2;SDS_P1;SDS_P2;PMS_P1;PMS_P2;Temp;Humidity;BMP_temperature;BMP_pressure;BME280_temperature;BME280_humidity;BME280_pressure;Samples;Min_cycle;Max_cycle;Signal;HPM_P1;HPM_P2
2021/06/17 00:01:45;;;;;;;1.55;1.08;;;;;;;16.19;85.60;98055.44;5004430;28;20057;-64
2021/06/17 00:04:10;;;;;;;2.92;1.10;;;;;;;16.23;86.05;98046.34;5004335;28;20086;-64
2021/06/17 00:06:35;;;;;;;1.55;1.10;;;;;;;16.30;85.79;98042.44;5004276;28;20022;-64
2021/06/17 00:09:02;;;;;;;3.40;1.33;;;;;;;16.22;85.58;98047.31;4995630;28;20026;-64
2021/06/17 00:11:28;;;;;;;1.50;1.00;;;;;;;16.23;85.29;98045.53;4984800;28;20031;-64
2021/06/17 00:13:53;;;;;;;0.88;0.80;;;;;;;16.32;85.38;98045.91;4984699;28;20094;-64
2021/06/17 00:16:19;;;;;;;2.25;1.10;;;;;;;16.34;85.02;98044.03;4984740;28;20191;-64
2021/06/17 00:18:45;;;;;;;1.13;1.02;;;;;;;16.16;85.47;98039.66;4990660;28;20028;-64
2021/06/17 00:21:10;;;;;;;1.35;1.00;;;;;;;16.30;85.32;98041.59;5004243;28;20326;-64
2021/06/17 00:23:35;;;;;;;1.80;1.10;;;;;;;16.08;85.48;98036.53;5007298;28;20309;-64
2021/06/17 00:26:02;;;;;;;1.85;1.00;;;;;;;16.00;85.83;98030.75;5008041;28;20085;-64
2021/06/17 00:28:28;;;;;;;0.90;0.90;;;;;;;15.97;85.73;98028.25;5004187;28;20023;-64
2021/06/17 00:30:54;;;;;;;0.80;0.80;;;;;;;16.01;86.20;98023.66;4988424;28;20036;-64
2021/06/17 00:33:20;;;;;;;2.15;1.00;;;;;;;15.93;85.62;98020.50;4988357;28;20031;-64
2021/06/17 00:35:46;;;;;;;1.65;1.02;;;;;;;15.91;86.07;98028.53;4988472;28;20023;-64
2021/06/17 00:38:13;;;;;;;1.10;1.05;;;;;;;16.08;86.41;98020.63;4989773;28;20314;-64
2021/06/17 00:40:39;;;;;;;2.90;1.10;;;;;;;16.02;85.37;98020.91;5007796;28;20033;-64
2021/06/17 00:43:05;;;;;;;2.33;1.02;;;;;;;16.02;85.68;98020.91;5007747;28;20019;-64
2021/06/17 00:45:34;;;;;;;2.70;1.10;;;;;;;15.82;85.27;98018.38;5007714;28;20030;-64
2021/06/17 00:48:00;;;;;;;0.77;0.77;;;;;;;15.87;85.96;98021.69;5007697;28;20052;-64
2021/06/17 00:50:29;;;;;;;1.38;1.00;;;;;;;15.89;86.02;98019.81;5007214;28;20356;-64
2021/06/17 00:52:54;;;;;;;2.35;1.05;;;;;;;15.87;85.54;98021.69;5007437;28;20032;-64
2021/06/17 00:55:20;;;;;;;1.65;1.00;;;;;;;15.78;85.80;98022.13;5007551;28;20026;-64
2021/06/17 00:57:46;;;;;;;2.83;1.10;;;;;;;15.66;86.20;98022.72;5007432;28;20081;-64
2021/06/17 01:00:15;;;;;;;1.75;1.00;;;;;;;15.80;85.88;98019.41;4990060;28;20050;-64
2021/06/17 01:02:41;;;;;;;2.80;1.00;;;;;;;15.85;85.39;98015.56;4988142;28;20241;-64
2021/06/17 01:05:09;;;;;;;1.33;1.05;;;;;;;15.72;85.54;98010.97;4987793;28;20065;-64
2021/06/17 01:08:32;;;;;;;0.93;0.93;;;;;;;15.73;85.75;98012.69;4987757;28;20088;-64
2021/06/17 01:11:14;;;;;;;2.83;1.00;;;;;;;15.72;85.59;98008.34;4928554;29;20027;-64
2021/06/17 01:13:53;;;;;;;1.13;1.00;;;;;;;15.70;85.90;98004.88;4928462;29;20040;-64
2021/06/17 01:16:35;;;;;;;1.20;1.10;;;;;;;15.66;85.45;97998.84;4975734;28;20042;-64
2021/06/17 01:19:24;;;;;;;0.88;0.80;;;;;;;15.66;85.90;98000.66;4995075;28;20306;-64
2021/06/17 01:22:12;;;;;;;1.23;1.00;;;;;;;15.66;85.58;98001.50;4998799;28;20106;-64
2021/06/17 01:24:44;;;;;;;3.85;1.25;;;;;;;15.49;85.71;97998.84;5007020;28;20046;-64
2021/06/17 01:27:46;;;;;;;2.95;1.00;;;;;;;15.40;86.18;97999.28;5006953;28;20026;-64
2021/06/17 01:30:13;;;;;;;;;;;;;;;15.46;86.57;97998.97;4990793;28;20210;-64
2021/06/17 01:32:44;;;;;;;1.17;0.98;;;;;;;15.41;85.73;98001.00;4987443;28;20193;-64
2021/06/17 01:35:11;;;;;;;1.57;1.07;;;;;;;15.30;86.21;98008.59;4986332;28;20050;-64
2021/06/17 01:37:38;;;;;;;3.05;1.25;;;;;;;15.43;86.67;98001.78;4987245;28;20062;-64
2021/06/17 01:40:09;;;;;;;1.55;1.10;;;;;;;15.46;86.37;98003.41;5002417;28;20022;-64
2021/06/17 01:42:36;;;;;;;1.80;1.10;;;;;;;15.37;86.09;97998.59;5006623;28;20022;-64
2021/06/17 01:45:02;;;;;;;1.38;1.15;;;;;;;15.27;86.60;98008.72;5006839;28;20018;-64
2021/06/17 01:47:29;;;;;;;1.10;1.00;;;;;;;15.32;86.80;98021.75;5006535;28;20277;-64
2021/06/17 01:49:56;;;;;;;2.38;1.10;;;;;;;15.23;86.24;98017.75;4992905;28;20077;-64
2021/06/17 01:52:23;;;;;;;0.90;0.90;;;;;;;15.14;86.52;98023.50;4986995;28;20096;-64
2021/06/17 01:54:49;;;;;;;1.23;0.90;;;;;;;15.11;86.96;98026.28;4987125;28;20266;-64
2021/06/17 01:57:17;;;;;;;1.33;0.82;;;;;;;15.13;86.69;98016.50;4986850;28;20019;-64
2021/06/17 01:59:44;;;;;;;0.90;0.90;;;;;;;15.00;87.48;98018.84;4997998;28;20322;-64
2021/06/17 02:02:12;;;;;;;1.58;1.05;;;;;;;15.05;86.92;98018.63;5006312;28;20018;-64
2021/06/17 02:04:39;;;;;;;1.65;1.00;;;;;;;15.14;86.90;98023.50;5006203;28;20061;-64
2021/06/17 02:07:06;;;;;;;1.98;1.50;;;;;;;15.00;86.82;98025.94;5006126;28;20018;-64
2021/06/17 02:09:33;;;;;;;1.70;1.30;;;;;;;15.02;87.02;98034.66;4996156;28;20074;-64
2021/06/17 02:11:58;;;;;;;3.42;1.35;;;;;;;15.02;86.37;98045.25;4986648;28;20025;-64
2021/06/17 02:14:25;;;;;;;0.98;0.80;;;;;;;15.13;86.43;98043.84;4986510;28;20023;-64
2021/06/17 02:16:52;;;;;;;2.80;1.20;;;;;;;15.14;85.25;98044.72;4986531;28;20019;-64
2021/06/17 02:19:20;;;;;;;3.65;1.15;;;;;;;14.97;85.59;98042.00;4994326;28;20022;-64
2021/06/17 02:21:50;;;;;;;2.22;1.10;;;;;;;14.92;86.53;98043.97;5005682;28;20235;-64
2021/06/17 02:24:17;;;;;;;1.88;0.95;;;;;;;15.02;86.76;98058.50;5006174;28;20018;-64
2021/06/17 02:26:44;;;;;;;1.67;1.08;;;;;;;15.05;86.30;98058.38;5005822;28;20309;-64
2021/06/17 02:29:14;;;;;;;1.10;1.00;;;;;;;15.07;85.60;98048.56;4998954;28;20086;-64
2021/06/17 02:31:44;;;;;;;1.50;1.05;;;;;;;14.90;86.58;98048.47;4986301;28;20314;-63
2021/06/17 02:34:14;;;;;;;2.47;0.90;;;;;;;14.81;86.25;98057.72;4986209;28;20250;-63
2021/06/17 02:36:45;;;;;;;1.85;1.75;;;;;;;14.80;86.72;98052.47;4986183;28;20033;-64
2021/06/17 02:39:12;;;;;;;2.03;1.67;;;;;;;14.86;86.88;98050.41;4986600;28;20058;-64
2021/06/17 02:41:43;;;;;;;1.80;1.08;;;;;;;14.87;86.42;98057.44;4986091;28;20038;-64
2021/06/17 02:44:10;;;;;;;2.03;1.10;;;;;;;14.92;85.77;98054.56;4986074;28;20023;-64
2021/06/17 02:46:35;;;;;;;2.63;1.20;;;;;;;14.64;86.42;98060.25;4985788;28;20064;-63
2021/06/17 02:49:01;;;;;;;1.50;1.00;;;;;;;14.61;86.63;98059.53;4991091;28;20316;-64
2021/06/17 02:51:26;;;;;;;2.25;1.17;;;;;;;14.75;86.97;98065.94;5005349;28;20022;-64
2021/06/17 02:53:52;;;;;;;1.00;0.90;;;;;;;14.69;86.89;98068.00;5005241;28;20053;-64
2021/06/17 02:56:37;;;;;;;2.58;0.98;;;;;;;14.59;86.35;98056.09;5005251;28;20030;-64
2021/06/17 02:59:35;;;;;;;2.97;1.20;;;;;;;14.66;87.06;98066.38;4986298;28;20321;-64
2021/06/17 03:02:18;;;;;;;1.52;1.10;;;;;;;14.66;87.16;98068.13;4926797;29;20043;-64
2021/06/17 03:04:52;;;;;;;1.25;1.00;;;;;;;14.65;87.01;98071.72;4926513;29;20126;-64
2021/06/17 03:07:31;;;;;;;1.55;1.10;;;;;;;14.60;87.59;98073.69;4930867;29;20293;-64
2021/06/17 03:10:06;;;;;;;2.25;1.20;;;;;;;14.61;87.12;98070.13;4945437;29;20028;-63
2021/06/17 03:12:33;;;;;;;2.10;1.20;;;;;;;14.61;86.75;98065.69;4945491;29;20339;-64
2021/06/17 03:15:01;;;;;;;2.70;1.30;;;;;;;14.60;85.68;98068.41;4945293;29;20055;-64
2021/06/17 03:17:32;;;;;;;1.58;1.00;;;;;;;14.48;87.06;98068.94;4939843;29;20038;-64
2021/06/17 03:20:01;;;;;;;1.55;0.98;;;;;;;14.50;87.20;98061.81;4926333;29;20035;-64
2021/06/17 03:22:28;;;;;;;2.67;1.13;;;;;;;14.55;86.14;98065.97;4926241;29;20024;-64
2021/06/17 03:24:57;;;;;;;2.08;1.17;;;;;;;14.59;85.97;98062.25;4926101;29;20036;-64
2021/06/17 03:27:23;;;;;;;1.75;1.02;;;;;;;14.62;86.58;98064.75;4930472;29;20094;-64
2021/06/17 03:29:51;;;;;;;3.60;1.10;;;;;;;14.62;86.87;98061.25;4945070;29;20255;-64
2021/06/17 03:32:18;;;;;;;1.42;1.33;;;;;;;14.54;86.97;98064.25;4945042;29;20106;-64
2021/06/17 03:34:47;;;;;;;2.17;1.00;;;;;;;14.59;87.23;98056.09;4944989;29;20228;-64
2021/06/17 03:37:15;;;;;;;0.90;0.90;;;;;;;14.67;87.02;98060.13;4941889;29;20215;-64
2021/06/17 03:39:43;;;;;;;2.08;1.20;;;;;;;14.75;86.77;98057.13;4980680;28;20045;-64
2021/06/17 03:42:11;;;;;;;2.85;1.10;;;;;;;14.82;86.13;98063.88;4985067;28;20218;-64
2021/06/17 03:44:38;;;;;;;3.38;1.30;;;;;;;14.87;86.26;98056.56;4985095;28;20062;-64
2021/06/17 03:47:07;;;;;;;2.22;1.17;;;;;;;14.86;86.31;98054.84;4985129;28;20036;-64
2021/06/17 03:49:35;;;;;;;2.05;1.10;;;;;;;14.99;85.73;98051.56;4990894;28;20329;-64
2021/06/17 03:52:01;;;;;;;1.77;1.20;;;;;;;14.98;85.40;98049.88;5004577;28;20025;-64
2021/06/17 03:54:27;;;;;;;2.60;1.08;;;;;;;15.04;85.15;98054.03;5004600;28;20278;-64
2021/06/17 03:57:01;;;;;;;1.50;1.00;;;;;;;15.07;84.81;98057.38;5006216;28;20018;-64
2021/06/17 03:59:29;;;;;;;1.70;1.10;;;;;;;15.13;84.72;98061.56;5010771;28;20109;-64
2021/06/17 04:01:56;;;;;;;3.72;1.17;;;;;;;15.16;84.28;98058.75;5010934;28;20058;-64
2021/06/17 04:04:22;;;;;;;5.93;1.30;;;;;;;15.14;84.78;98065.91;4995419;28;20250;-64
2021/06/17 04:06:53;;;;;;;2.40;0.95;;;;;;;15.08;85.09;98061.75;4991619;28;20026;-64
2021/06/17 04:09:28;;;;;;;3.40;1.10;;;;;;;15.18;84.94;98052.44;4991334;28;20097;-64
2021/06/17 04:11:56;;;;;;;3.60;1.30;;;;;;;15.13;85.07;98062.38;4991354;28;20026;-64
2021/06/17 04:14:24;;;;;;;2.80;1.10;;;;;;;15.23;85.24;98060.19;4991224;28;20031;-64
2021/06/17 04:16:52;;;;;;;3.17;1.40;;;;;;;15.33;85.14;98056.16;4991268;28;20026;-64
2021/06/17 04:19:22;;;;;;;3.22;1.30;;;;;;;15.39;85.06;98063.88;5002006;28;20034;-64
2021/06/17 04:21:50;;;;;;;2.45;1.40;;;;;;;15.53;84.30;98058.75;5011020;28;20018;-64
2021/06/17 04:24:19;;;;;;;1.15;1.00;;;;;;;15.64;83.76;98052.94;5010717;28;20015;-64
2021/06/17 04:26:45;;;;;;;2.95;1.10;;;;;;;15.68;83.63;98058.03;5010730;28;20022;-64
2021/06/17 04:29:14;;;;;;;2.95;1.20;;;;;;;15.77;83.88;98057.56;5010681;28;20029;-64
2021/06/17 04:31:40;;;;;;;4.30;1.05;;;;;;;16.17;81.94;98062.59;5010703;28;20324;-64
2021/06/17 04:34:07;;;;;;;4.15;1.30;;;;;;;16.70;80.79;98068.69;5010550;28;20073;-64
2021/06/17 04:36:32;;;;;;;3.05;0.88;;;;;;;17.18;78.46;98062.53;5001027;28;20026;-64
2021/06/17 04:38:58;;;;;;;1.23;0.98;;;;;;;17.75;76.20;98066.47;4991089;28;20077;-64
2021/06/17 04:41:23;;;;;;;1.08;1.00;;;;;;;18.06;74.89;98069.06;4991002;28;20018;-64
2021/06/17 04:43:49;;;;;;;4.05;1.10;;;;;;;18.49;74.40;98078.97;4991011;28;20025;-64
2021/06/17 04:46:14;;;;;;;1.10;1.00;;;;;;;18.47;73.39;98078.19;4991100;28;20026;-64
2021/06/17 04:48:42;;;;;;;1.50;0.90;;;;;;;18.45;73.44;98074.78;4991007;28;20022;-64
2021/06/17 04:51:10;;;;;;;1.50;1.08;;;;;;;18.91;72.17;98076.38;4991201;28;20061;-64
2021/06/17 04:53:36;;;;;;;4.28;1.20;;;;;;;19.07;71.22;98074.47;4990869;28;20026;-64
2021/06/17 04:56:02;;;;;;;2.15;0.95;;;;;;;19.18;71.15;98066.66;4998822;28;20213;-64
2021/06/17 04:58:27;;;;;;;1.45;0.88;;;;;;;19.24;70.89;98072.47;5010376;28;20026;-64
2021/06/17 05:00:53;;;;;;;0.70;0.70;;;;;;;19.36;70.74;98070.88;5010243;28;20038;-64
2021/06/17 05:03:19;;;;;;;1.10;0.88;;;;;;;19.46;70.35;98069.34;5010363;28;20025;-64
2021/06/17 05:05:48;;;;;;;1.77;1.10;;;;;;;19.31;70.83;98072.97;5010344;28;20122;-64
2021/06/17 05:13:21;;;;;;;1.08;0.90;;;;;;;19.88;69.36;98082.59;5007428;28;20037;-64
2021/06/17 05:15:47;;;;;;;3.05;1.40;;;;;;;20.12;70.21;98089.03;5007418;28;20209;-64
2021/06/17 05:18:13;;;;;;;2.40;1.30;;;;;;;20.33;71.11;98095.63;4996357;28;20070;-64
2021/06/17 05:20:38;;;;;;;0.70;0.70;;;;;;;20.66;68.94;98101.34;4987619;28;20082;-64
2021/06/17 05:23:04;;;;;;;1.13;0.80;;;;;;;21.28;67.30;98113.09;4987544;28;20019;-64
2021/06/17 05:25:30;;;;;;;0.80;0.80;;;;;;;21.81;65.88;98122.69;4987506;28;20026;-64
2021/06/17 05:27:55;;;;;;;0.90;0.90;;;;;;;22.15;65.60;98121.94;4987494;28;20030;-64
2021/06/17 05:30:21;;;;;;;2.97;1.00;;;;;;;22.56;64.57;98130.47;4987401;28;20022;-64
2021/06/17 05:32:46;;;;;;;2.38;1.10;;;;;;;22.85;64.02;98121.06;4987361;28;20074;-64
2021/06/17 05:35:12;;;;;;;2.10;1.20;;;;;;;23.40;62.62;98128.38;4987347;28;20023;-64
2021/06/17 05:37:38;;;;;;;2.25;1.05;;;;;;;23.68;60.88;98131.47;4987289;28;20067;-64
2021/06/17 05:40:04;;;;;;;1.38;0.90;;;;;;;23.92;61.30;98137.53;4987256;28;20375;-64
2021/06/17 05:42:30;;;;;;;1.17;1.00;;;;;;;24.30;60.12;98143.38;5004194;28;20036;-64
2021/06/17 05:44:56;;;;;;;3.00;1.10;;;;;;;24.64;58.39;98150.41;4997528;28;20015;-64
2021/06/17 05:47:21;;;;;;;1.15;0.95;;;;;;;24.89;57.88;98143.81;4987177;28;20022;-64
2021/06/17 05:49:47;;;;;;;3.00;1.02;;;;;;;24.25;60.09;98164.44;4987058;28;20033;-64
2021/06/17 05:52:13;;;;;;;4.60;1.20;;;;;;;25.10;59.48;98161.72;4987017;28;20031;-64
2021/06/17 05:54:38;;;;;;;2.60;1.10;;;;;;;25.59;59.28;98161.03;4986886;28;20030;-64
2021/06/17 05:57:04;;;;;;;2.15;1.10;;;;;;;25.69;57.11;98163.81;4999523;28;20214;-64
2021/06/17 05:59:29;;;;;;;2.95;1.08;;;;;;;26.14;58.50;98160.63;5005947;28;20046;-64
2021/06/17 06:01:55;;;;;;;1.33;0.93;;;;;;;26.58;57.05;98159.28;5006279;28;20061;-64
2021/06/17 06:04:20;;;;;;;2.03;0.90;;;;;;;26.92;55.22;98166.00;5006255;28;20089;-64
2021/06/17 06:06:46;;;;;;;1.23;1.10;;;;;;;26.89;56.98;98158.22;5006227;28;20084;-64
2021/06/17 06:09:11;;;;;;;3.30;1.10;;;;;;;27.22;54.89;98168.56;5006174;28;20089;-64
2021/06/17 06:11:37;;;;;;;1.30;0.85;;;;;;;27.64;53.48;98172.63;5006177;28;20022;-64
2021/06/17 06:14:03;;;;;;;3.08;1.10;;;;;;;27.76;53.99;98155.25;5006070;28;20025;-64
2021/06/17 06:16:29;;;;;;;2.20;1.02;;;;;;;27.42;52.23;98156.75;4998273;28;20019;-64
2021/06/17 06:18:55;;;;;;;3.50;1.10;;;;;;;26.53;55.09;98156.13;4986529;28;20042;-64
2021/06/17 06:21:20;;;;;;;4.00;1.17;;;;;;;26.70;55.78;98152.81;4985961;28;20026;-64
2021/06/17 06:23:45;;;;;;;3.35;1.10;;;;;;;28.04;55.86;98159.72;4986491;28;20108;-64
2021/06/17 06:26:11;;;;;;;2.65;1.10;;;;;;;28.60;52.94;98155.00;4986384;28;20377;-64
2021/06/17 06:28:36;;;;;;;1.88;1.00;;;;;;;28.89;53.51;98162.91;4986610;28;20019;-64
2021/06/17 06:31:02;;;;;;;2.65;1.27;;;;;;;29.22;52.26;98164.94;4986303;28;20330;-64
2021/06/17 06:33:27;;;;;;;1.77;1.00;;;;;;;29.48;50.60;98164.97;4986177;28;20030;-64
2021/06/17 06:35:53;;;;;;;4.03;1.05;;;;;;;29.52;49.46;98164.50;4986213;28;20022;-64
2021/06/17 06:38:18;;;;;;;1.60;1.10;;;;;;;30.08;50.54;98183.03;4986209;28;20023;-64
2021/06/17 06:40:44;;;;;;;1.73;1.20;;;;;;;30.69;44.70;98186.34;4998970;28;20140;-64
2021/06/17 06:43:11;;;;;;;12.48;1.50;;;;;;;31.06;44.97;98187.66;5005556;28;20026;-64
2021/06/17 06:45:37;;;;;;;1.38;1.20;;;;;;;31.19;42.94;98189.84;5005731;28;20089;-65
2021/06/17 06:48:03;;;;;;;2.05;1.23;;;;;;;31.55;44.35;98193.13;5005428;28;20022;-65
2021/06/17 06:50:28;;;;;;;1.88;1.50;;;;;;;31.70;43.26;98184.09;5005424;28;20100;-65
2021/06/17 06:52:54;;;;;;;5.82;1.70;;;;;;;32.09;42.44;98179.63;5005279;28;20022;-65
2021/06/17 06:55:19;;;;;;;2.92;1.70;;;;;;;32.08;41.61;98198.88;5005315;28;20023;-65
2021/06/17 06:57:47;;;;;;;4.00;1.75;;;;;;;31.52;44.30;98205.22;4987846;28;20026;-65
2021/06/17 07:00:13;;;;;;;5.82;1.50;;;;;;;31.24;44.89;98198.38;5005084;28;20046;-64
2021/06/17 07:02:39;;;;;;;3.08;1.65;;;;;;;31.38;44.25;98197.72;5005285;28;20089;-65
2021/06/17 07:05:06;;;;;;;2.97;1.50;;;;;;;31.23;42.44;98185.78;4998452;28;20025;-65
2021/06/17 07:07:32;;;;;;;3.50;1.50;;;;;;;31.27;44.64;98192.63;4985651;28;20018;-65
2021/06/17 07:09:57;;;;;;;4.43;1.85;;;;;;;31.49;45.01;98201.97;4985612;28;20029;-64
2021/06/17 07:12:23;;;;;;;4.38;1.85;;;;;;;31.29;44.99;98187.88;4985791;28;20018;-64
2021/06/17 07:14:48;;;;;;;3.60;1.67;;;;;;;31.17;44.90;98192.72;4985455;28;20321;-64
2021/06/17 07:17:15;;;;;;;3.15;1.65;;;;;;;31.31;45.97;98190.44;4985462;28;20049;-64
2021/06/17 07:19:41;;;;;;;3.15;1.70;;;;;;;31.29;45.81;98206.91;4985471;28;20022;-64
2021/06/17 07:22:08;;;;;;;3.05;1.70;;;;;;;31.40;46.28;98211.16;4985648;28;20027;-64
2021/06/17 07:24:33;;;;;;;2.95;1.85;;;;;;;31.15;44.17;98188.50;4985379;28;20022;-64
2021/06/17 07:26:59;;;;;;;2.28;1.70;;;;;;;31.30;45.16;98191.44;4985372;28;20093;-64
2021/06/17 07:29:24;;;;;;;1.80;1.60;;;;;;;31.40;45.89;98202.97;4985314;28;20029;-64
2021/06/17 07:31:49;;;;;;;2.28;1.50;;;;;;;31.70;45.94;98216.75;4988048;28;20310;-64
2021/06/17 07:34:15;;;;;;;5.80;1.80;;;;;;;31.31;44.06;98202.13;5004653;28;20218;-64
2021/06/17 07:36:41;;;;;;;5.20;1.67;;;;;;;31.90;44.36;98193.63;5004598;28;20022;-64
2021/06/17 07:39:09;;;;;;;3.45;1.70;;;;;;;32.18;42.55;98203.09;5004602;28;20018;-64
2021/06/17 07:41:36;;;;;;;4.65;1.65;;;;;;;32.16;44.24;98201.53;5004628;28;20337;-64
2021/06/17 07:44:02;;;;;;;4.22;1.90;;;;;;;32.38;43.02;98201.69;5004801;28;20066;-64
2021/06/17 07:46:27;;;;;;;4.13;1.77;;;;;;;32.54;43.10;98206.19;5004542;28;20041;-64
2021/06/17 07:48:53;;;;;;;2.65;1.63;;;;;;;32.61;43.16;98197.16;5004517;28;20022;-65
2021/06/17 07:51:18;;;;;;;3.67;1.80;;;;;;;32.61;42.37;98196.28;5004521;28;20049;-64
2021/06/17 07:53:44;;;;;;;3.28;1.77;;;;;;;32.81;42.55;98203.00;5004391;28;20018;-64
2021/06/17 07:56:10;;;;;;;2.10;1.80;;;;;;;32.90;41.88;98200.09;5003291;28;20033;-64
2021/06/17 07:58:36;;;;;;;3.45;1.92;;;;;;;32.73;42.81;98192.13;4987116;28;20034;-64
2021/06/17 08:01:02;;;;;;;4.40;1.90;;;;;;;33.13;42.38;98201.97;4996592;28;20046;-64
2021/06/17 08:03:27;;;;;;;2.80;1.52;;;;;;;33.35;41.71;98212.06;5004378;28;20026;-64
2021/06/17 08:05:53;;;;;;;6.10;1.88;;;;;;;33.13;39.27;98196.53;5004323;28;20029;-64
2021/06/17 08:08:19;;;;;;;3.70;1.92;;;;;;;33.03;40.68;98183.97;5004362;28;20030;-64
2021/06/17 08:10:45;;;;;;;3.85;1.95;;;;;;;32.67;41.29;98188.25;5004348;28;20349;-64
2021/06/17 08:13:10;;;;;;;2.40;1.83;;;;;;;32.91;40.95;98181.84;5004455;28;20029;-64
2021/06/17 08:15:37;;;;;;;3.90;1.85;;;;;;;33.23;41.38;98186.22;5004379;28;20320;-64
2021/06/17 08:18:03;;;;;;;1.88;1.67;;;;;;;33.05;42.17;98184.66;5004286;28;20029;-65
2021/06/17 08:20:29;;;;;;;3.05;1.75;;;;;;;33.22;40.51;98182.66;5004261;28;20089;-65
2021/06/17 08:22:54;;;;;;;2.95;1.58;;;;;;;33.24;42.10;98187.94;5004229;28;20026;-65
2021/06/17 08:25:19;;;;;;;2.78;1.70;;;;;;;33.15;41.67;98194.47;4990658;28;20318;-64
2021/06/17 08:27:45;;;;;;;4.85;1.80;;;;;;;32.99;41.82;98185.38;4984731;28;20050;-64
2021/06/17 08:30:14;;;;;;;2.72;1.70;;;;;;;32.92;43.27;98184.41;4984673;28;20310;-64
2021/06/17 08:32:40;;;;;;;1.88;1.73;;;;;;;32.68;43.95;98192.69;4989686;28;20022;-64
2021/06/17 08:35:07;;;;;;;4.15;2.08;;;;;;;32.80;42.80;98180.34;5002238;28;20053;-64
2021/06/17 08:37:32;;;;;;;3.10;1.77;;;;;;;33.24;41.43;98177.03;5004095;28;20343;-64
2021/06/17 08:39:59;;;;;;;6.45;1.85;;;;;;;33.75;40.95;98192.63;5004317;28;20018;-64
2021/06/17 08:42:26;;;;;;;4.47;1.90;;;;;;;33.65;40.70;98192.03;5004035;28;20030;-64
2021/06/17 08:44:53;;;;;;;4.65;1.80;;;;;;;33.35;43.51;98195.69;5007356;28;20019;-64
2021/06/17 08:47:18;;;;;;;3.83;1.80;;;;;;;33.58;40.31;98196.53;5007731;28;20030;-64
2021/06/17 08:49:44;;;;;;;2.35;1.60;;;;;;;33.43;42.86;98193.75;5007698;28;20029;-64
2021/06/17 08:52:12;;;;;;;3.17;2.08;;;;;;;33.41;43.36;98190.38;5007548;28;20085;-65
2021/06/17 08:54:37;;;;;;;3.80;2.05;;;;;;;32.46;42.22;98189.91;5007752;28;20026;-65
2021/06/17 08:57:03;;;;;;;1.92;1.80;;;;;;;32.91;41.02;98182.72;5007470;28;20316;-64
2021/06/17 08:59:34;;;;;;;3.25;1.85;;;;;;;32.57;42.51;98186.78;5007333;28;20038;-64
2021/06/17 09:02:00;;;;;;;3.63;1.90;;;;;;;33.24;40.38;98183.31;5005701;28;20050;-64
2021/06/17 09:04:27;;;;;;;3.08;1.90;;;;;;;33.23;40.68;98181.63;5007151;28;20027;-64
2021/06/17 09:07:05;;;;;;;3.50;1.88;;;;;;;33.05;41.54;98175.59;5007351;28;20030;-64
2021/06/17 09:09:51;;;;;;;2.50;1.80;;;;;;;33.23;41.26;98186.22;5007311;28;20085;-64
2021/06/17 09:12:20;;;;;;;5.72;2.00;;;;;;;32.89;40.34;98184.75;5006835;28;20038;-64
2021/06/17 09:14:55;;;;;;;4.32;2.15;;;;;;;32.79;41.61;98183.25;5007102;28;20214;-64
2021/06/17 09:17:21;;;;;;;1.95;1.75;;;;;;;33.08;42.29;98188.06;5007401;28;20250;-64
2021/06/17 09:19:49;;;;;;;2.45;1.80;;;;;;;33.88;39.48;98182.78;5007157;28;20025;-64
2021/06/17 09:22:17;;;;;;;4.25;1.90;;;;;;;33.82;40.90;98188.97;4989684;28;20097;-65
2021/06/17 09:24:48;;;;;;;4.70;1.95;;;;;;;34.36;38.54;98193.19;5007039;28;20230;-65
2021/06/17 09:27:26;;;;;;;4.10;1.92;;;;;;;34.03;41.19;98189.13;5006997;28;20022;-65
2021/06/17 09:29:56;;;;;;;2.28;1.98;;;;;;;34.10;41.98;98186.50;4987846;28;20019;-65
2021/06/17 09:32:27;;;;;;;3.03;2.25;;;;;;;33.56;40.31;98187.69;5004957;28;20314;-65
2021/06/17 09:34:54;;;;;;;3.38;1.80;;;;;;;34.38;40.86;98195.75;5006792;28;20041;-64
2021/06/17 09:37:32;;;;;;;2.20;1.90;;;;;;;34.66;40.42;98194.03;5006811;28;20252;-64
2021/06/17 09:39:58;;;;;;;4.05;1.90;;;;;;;34.04;39.34;98192.72;5006721;28;20026;-64
2021/06/17 09:42:31;;;;;;;3.08;1.90;;;;;;;34.37;40.32;98192.19;5006946;28;20018;-64
2021/06/17 09:45:00;;;;;;;1.98;1.55;;;;;;;35.01;38.34;98195.13;5006626;28;20014;-64
2021/06/17 09:47:32;;;;;;;2.33;1.92;;;;;;;34.96;38.90;98190.22;5006625;28;20026;-64
2021/06/17 09:50:00;;;;;;;3.83;2.10;;;;;;;35.20;39.49;98194.50;5006590;28;20313;-64
2021/06/17 09:52:38;;;;;;;2.90;1.75;;;;;;;34.86;38.85;98189.69;5006514;28;20026;-64
2021/06/17 09:55:04;;;;;;;5.65;2.45;;;;;;;34.72;41.71;98205.06;5005549;28;20042;-64
2021/06/17 09:57:34;;;;;;;2.90;1.98;;;;;;;34.95;38.66;98196.72;5005230;28;20046;-64
2021/06/17 10:00:10;;;;;;;4.38;2.00;;;;;;;34.91;40.05;98195.41;4986804;28;20110;-64
2021/06/17 10:02:38;;;;;;;3.53;1.70;;;;;;;35.26;38.86;98199.16;4986945;28;20106;-64
2021/06/17 10:05:19;;;;;;;2.72;1.85;;;;;;;34.98;38.54;98199.94;4987092;28;20027;-64
2021/06/17 10:07:45;;;;;;;2.10;1.80;;;;;;;34.95;38.21;98210.41;5002483;28;20250;-64
2021/06/17 10:10:14;;;;;;;2.65;2.13;;;;;;;34.80;38.83;98206.84;5005709;28;20348;-64
2021/06/17 10:12:40;;;;;;;2.92;2.00;;;;;;;34.79;40.32;98210.59;5006019;28;20340;-64
2021/06/17 10:15:07;;;;;;;3.97;2.45;;;;;;;34.96;39.19;98202.00;5006122;28;20018;-64
2021/06/17 10:17:33;;;;;;;6.05;2.53;;;;;;;34.47;40.61;98200.09;5006057;28;20050;-64
2021/06/17 10:20:02;;;;;;;3.72;1.83;;;;;;;34.78;39.23;98204.28;5006054;28;20026;-64
2021/06/17 10:22:32;;;;;;;2.47;1.98;;;;;;;34.36;40.84;98200.56;5006229;28;20237;-64
2021/06/17 10:24:57;;;;;;;5.90;2.45;;;;;;;34.07;39.47;98198.63;5006162;28;20093;-64
2021/06/17 10:27:50;;;;;;;4.80;2.05;;;;;;;33.88;41.30;98198.34;4998026;28;20033;-64
2021/06/17 10:30:16;;;;;;;2.67;1.88;;;;;;;33.92;41.22;98205.13;4984593;28;20034;-64
2021/06/17 10:32:46;;;;;;;3.85;2.00;;;;;;;32.65;43.42;98187.56;4986301;28;20027;-64
2021/06/17 10:35:28;;;;;;;2.87;2.20;;;;;;;33.45;41.36;98191.72;4986319;28;20027;-64
2021/06/17 10:37:58;;;;;;;4.38;2.20;;;;;;;34.02;39.89;98192.03;4986308;28;20261;-64
2021/06/17 10:40:25;;;;;;;4.15;2.03;;;;;;;34.47;41.49;98200.94;4986229;28;20313;-64
2021/06/17 10:42:53;;;;;;;2.85;2.28;;;;;;;34.45;42.36;98197.53;4986144;28;20018;-64
2021/06/17 10:45:37;;;;;;;2.95;2.13;;;;;;;34.62;39.83;98195.44;4986055;28;20019;-64
2021/06/17 10:48:12;;;;;;;6.22;2.30;;;;;;;34.51;40.37;98194.03;4986048;28;20070;-64
2021/06/17 10:50:43;;;;;;;3.30;2.40;;;;;;;34.59;41.43;98199.41;4985981;28;20031;-64
2021/06/17 10:53:38;;;;;;;2.50;2.03;;;;;;;34.62;39.29;98198.19;4985888;28;20031;-64
2021/06/17 10:56:08;;;;;;;5.00;2.35;;;;;;;34.61;40.46;98191.84;4986164;28;20157;-64
2021/06/17 10:58:50;;;;;;;3.05;2.35;;;;;;;34.82;40.27;98193.81;5002486;28;20027;-64
2021/06/17 11:01:27;;;;;;;4.07;2.42;;;;;;;34.53;40.71;98207.53;5005145;28;20300;-64
2021/06/17 11:04:06;;;;;;;3.25;2.10;;;;;;;33.95;37.22;98196.56;5005183;28;20042;-64
2021/06/17 11:06:51;;;;;;;3.78;2.17;;;;;;;33.85;39.07;98204.97;5005088;28;20207;-64
2021/06/17 11:09:35;;;;;;;5.07;2.30;;;;;;;33.53;39.07;98193.53;5005097;28;20037;-64
2021/06/17 11:12:27;;;;;;;4.47;2.17;;;;;;;33.75;38.84;98192.63;5005302;28;20218;-64
2021/06/17 11:14:56;;;;;;;3.30;2.30;;;;;;;33.38;40.46;98201.66;5005059;28;20052;-64
2021/06/17 11:17:29;;;;;;;4.25;2.13;;;;;;;33.65;42.79;98192.03;5004946;28;20026;-64
2021/06/17 11:19:55;;;;;;;3.45;2.40;;;;;;;33.54;41.27;98189.75;5005194;28;20317;-64
2021/06/17 11:22:49;;;;;;;4.97;2.25;;;;;;;33.82;41.24;98191.69;5004853;28;20028;-64
2021/06/17 11:25:17;;;;;;;4.93;2.35;;;;;;;33.79;42.04;98189.34;5003290;28;20038;-64
2021/06/17 11:27:58;;;;;;;4.00;2.40;;;;;;;33.93;40.91;98187.69;5003278;28;20334;-64
2021/06/17 11:30:39;;;;;;;4.75;2.20;;;;;;;33.94;40.12;98182.03;5004821;28;20026;-64
2021/06/17 11:35:54;;;;;;;5.32;2.25;;;;;;;33.58;40.75;98174.69;5004994;28;20030;-64
2021/06/17 11:38:29;;;;;;;2.65;2.40;;;;;;;33.30;41.08;98170.81;5004644;28;20085;-64
2021/06/17 11:40:55;;;;;;;3.13;2.17;;;;;;;33.51;42.52;98157.38;5004895;28;20105;-64
2021/06/17 11:43:25;;;;;;;2.15;2.00;;;;;;;33.17;44.91;98159.66;5004611;28;20034;-64
2021/06/17 11:45:51;;;;;;;3.58;2.17;;;;;;;33.40;42.33;98160.56;5004487;28;20065;-64
2021/06/17 11:48:17;;;;;;;3.13;2.20;;;;;;;33.24;41.57;98166.94;5004573;28;20026;-64
2021/06/17 11:50:47;;;;;;;2.70;2.30;;;;;;;33.05;42.66;98168.28;5004569;28;20321;-64